This is the latest recevied weather packets stored in our database for station/object KD8AZC-13. If no packets are shown the sender has not sent any weather packets the latest 10 day(s).
| Time | Temp. | Humidity | Pressure | Rain* | Wind** | Luminosity | Snow |
|---|---|---|---|---|---|---|---|
| 1777402846 | 15° C | 82% | 1014.7 hPa | 0 mm | - | - | - |
| 1777401022 | 15.56° C | 81% | 1014.6 hPa | 0 mm | - | - | - |
| 1777397417 | 17.22° C | 76% | 1014.3 hPa | 0 mm | - | - | - |
| 1777395622 | 16.67° C | 75% | 1014.4 hPa | 0 mm | - | - | - |
| 1777393806 | 16.67° C | 77% | 1014.5 hPa | 0 mm | - | - | - |
| 1777382153 | 11.11° C | 91% | 1016 hPa | 0 mm | - | - | - |
| 1777379438 | 10° C | 91% | 1016.1 hPa | 0 mm | - | - | - |
| 1777376737 | 10° C | 91% | 1016.9 hPa | 1.02 mm | - | - | - |
| 1777372225 | 10.56° C | 88% | 1016.9 hPa | 1.02 mm | - | - | - |
| 1777366849 | 13.33° C | 63% | 1016.2 hPa | 0 mm | - | - | - |
| 1777358728 | 14.44° C | 60% | 1018.6 hPa | 0 mm | - | - | - |
| 1777355119 | 14.44° C | 59% | 1019 hPa | 0 mm | - | - | - |
| 1777354218 | 14.44° C | 61% | 1019.2 hPa | 0 mm | - | - | - |
| 1777353316 | 14.44° C | 60% | 1019.1 hPa | 0 mm | - | - | - |
| 1777347903 | 14.44° C | 60% | 1020 hPa | 0 mm | - | - | - |
| 1777338945 | 15° C | 59% | 1020.4 hPa | 0 mm | - | - | - |
| 1777338049 | 15.56° C | 56% | 1020.2 hPa | 0 mm | - | - | - |
| 1777337144 | 15.56° C | 54% | 1020.2 hPa | 0 mm | - | - | - |
| 1777333543 | 18.33° C | 48% | 1019.6 hPa | 0 mm | - | - | - |
| 1777331745 | 19.44° C | 44% | 1019.5 hPa | 0 mm | - | - | - |
| 1777320924 | 22.22° C | 39% | 1019.8 hPa | 0 mm | - | - | - |
| 1777320023 | 21.67° C | 40% | 1019.9 hPa | 0 mm | - | - | - |
| 1777319120 | 21.67° C | 41% | 1020.2 hPa | 0 mm | - | - | - |
| 1777316413 | 21.11° C | 38% | 1020.9 hPa | 0 mm | - | - | - |
| 1777309258 | 19.44° C | 42% | 1022.3 hPa | 0 mm | - | - | - |
* Rain latest hour (hover to see other rain measurements)
** Current wind speed in m/s (hover to see current wind gust speed)